Sakigake — JD4118 — position and weather

sailwx.info

Track history (hours):
 
Tides and Currents Weather Stations Pressure Air Temp Water Temp Dewpoint Dewpoint Depression Visibility Wind Speed Wind Dir Waves Ship Positions

Sakigake

Last reported at 2017-Dec-10 15:43 UTC. Time now 2017-Dec-11 17:26 UTC.
Position N 34°23' E 134°20'.

Length 80 m; draft 4.5 m.

Type: Cargo ship. MMSI: 431008777.

Date/timePositionNaut miles runAvg speedWind from/ knotsBaromVisibWave heightAir tempDewpointWater temp
2017-Dec-10 15:43N 34°23' E 134°20'312.2
2017-Dec-10 15:30N 34°22' E 134°23'612.1
2017-Dec-10 14:59N 34°19' E 134°30'612.4
2017-Dec-10 14:31N 34°17' E 134°36'612.1
2017-Dec-10 14:00N 34°12' E 134°41'612.1
2017-Dec-10 13:30N 34°07' E 134°45'611.6
2017-Dec-10 13:00N 34°03' E 134°49'611.6
2017-Dec-10 12:30N 33°58' E 134°54'611.5
2017-Dec-10 12:00N 33°54' E 134°58'88 9.4
2017-Dec-10 02:39N 34°06' E 136°43'6512.4
2017-Dec-09 21:23N 34°31' E 137°57'611.2
2017-Dec-09 20:49N 34°31' E 138°05'310.4
2017-Dec-09 20:29N 34°31' E 138°09'5 9.7
2017-Dec-09 20:00N 34°31' E 138°15'11 9.8
2017-Dec-09 18:53N 34°32' E 138°28'4 9.5
2017-Dec-09 18:29N 34°33' E 138°33'5 9.6
2017-Dec-09 17:59N 34°34' E 138°38'5 9.2
2017-Dec-09 17:30N 34°34' E 138°44'5 9.4
2017-Dec-09 17:00N 34°34' E 138°49'4 8.9
2017-Dec-09 16:30N 34°35' E 138°55'4 8.9
2017-Dec-09 16:00N 34°38' E 138°59'610.9
2017-Dec-09 15:30N 34°42' E 139°03'511.1
2017-Dec-09 15:00N 34°46' E 139°07'611.2
2017-Dec-09 14:28N 34°51' E 139°12'511.0
2017-Dec-09 13:59N 34°55' E 139°17'5 9.9
2017-Dec-09 13:31N 34°57' E 139°22'5 9.8
2017-Dec-09 13:00N 34°60' E 139°27'5 9.4
2017-Dec-09 12:30N 35°02' E 139°32'510.4
2017-Dec-09 12:00N 35°05' E 139°37'611.8
2017-Dec-09 11:30N 35°08' E 139°43'611.8
2017-Dec-09 11:01N 35°13' E 139°46'611.5
2017-Dec-09 10:31N 35°19' E 139°43'611.0
2017-Dec-09 10:01N 35°24' E 139°43'611.6
2017-Dec-09 09:31N 35°28' E 139°48'711.8
2017-Dec-09 08:53N 35°33' E 139°55'611.5
2017-Dec-09 08:22N 35°38' E 139°58'2 0.4
2017-Dec-09 02:15N 35°40' E 139°57'0 0.0
2017-Dec-08 22:13N 35°40' E 139°57'0 0.0
2017-Dec-08 16:48N 35°40' E 139°57'0 0.0
2017-Dec-08 15:06N 35°40' E 139°57'0 0.0
2017-Dec-08 12:38N 35°40' E 139°57'0 0.0
2017-Dec-08 12:21N 35°40' E 139°57'0 0.0
2017-Dec-08 06:27N 35°40' E 139°57'0 0.0
2017-Dec-08 05:59N 35°40' E 139°57'0 0.2
2017-Dec-08 04:42N 35°40' E 139°57'3 7.6
2017-Dec-08 04:18N 35°38' E 139°59'2 6.5
2017-Dec-08 04:00N 35°36' E 139°57'0 0.1
2017-Dec-08 03:27N 35°36' E 139°57'0 0.0
2017-Dec-08 03:00N 35°36' E 139°57'0 0.0
2017-Dec-08 02:30N 35°36' E 139°57'0 0.0
2017-Dec-08 02:00N 35°36' E 139°57'0 0.0
2017-Dec-08 01:27N 35°36' E 139°57'0 0.0
2017-Dec-08 01:00N 35°36' E 139°57'0 0.0
2017-Dec-08 00:24N 35°36' E 139°57'0 0.0
2017-Dec-08 00:00N 35°36' E 139°57'0 0.0
2017-Dec-07 23:29N 35°36' E 139°57'0 0.0
2017-Dec-07 23:00N 35°36' E 139°57'0 0.0
2017-Dec-07 22:30N 35°36' E 139°57'0 0.0
2017-Dec-07 21:58N 35°36' E 139°57'0 0.0
2017-Dec-07 20:57N 35°36' E 139°57'0 0.0
2017-Dec-07 19:09N 35°36' E 139°57'0 0.0
2017-Dec-07 18:45N 35°36' E 139°57'0 0.0
2017-Dec-07 18:30N 35°36' E 139°57'0 0.0
2017-Dec-07 18:00N 35°36' E 139°57'0 0.0
2017-Dec-07 17:30N 35°36' E 139°57'2 4.5
2017-Dec-07 16:59N 35°34' E 139°56'611.8
2017-Dec-07 16:30N 35°30' E 139°52'611.6
2017-Dec-07 16:00N 35°25' E 139°47'611.2
2017-Dec-07 15:31N 35°20' E 139°45'510.3
2017-Dec-07 15:01N 35°15' E 139°47'611.0
2017-Dec-07 14:30N 35°10' E 139°46'611.7
2017-Dec-07 14:00N 35°05' E 139°42'612.8
2017-Dec-07 13:30N 35°01' E 139°36'1913.5
2017-Dec-07 12:04N 34°49' E 139°17'213.2
2017-Dec-07 11:54N 34°48' E 139°15'912.9
2017-Dec-07 11:11N 34°42' E 139°06'311.6
2017-Dec-07 10:58N 34°40' E 139°04'510.7
2017-Dec-07 10:31N 34°37' E 138°59'1411.9
2017-Dec-07 09:18N 34°34' E 138°43'512.8
2017-Dec-07 08:54N 34°34' E 138°36'512.2
2017-Dec-07 08:29N 34°33' E 138°30'811.9
2017-Dec-07 07:51N 34°32' E 138°21'511.7
2017-Dec-07 07:25N 34°32' E 138°15'611.8
2017-Dec-07 06:56N 34°31' E 138°08'  
2017-Dec-03 12:03N 34°25' E 134°12'113.2
2017-Dec-03 11:59N 34°24' E 134°13'613.2
2017-Dec-03 11:30N 34°22' E 134°20'612.5
2017-Dec-03 11:00N 34°20' E 134°27'612.6
2017-Dec-03 10:30N 34°17' E 134°34'612.1
2017-Dec-03 10:00N 34°13' E 134°40'713.1
2017-Dec-03 09:30N 34°08' E 134°45'612.1
2017-Dec-03 09:00N 34°04' E 134°50'612.0
2017-Dec-03 08:30N 33°59' E 134°55'712.6
2017-Dec-03 07:59N 33°54' E 134°60'70 9.5
2017-Dec-03 00:39N 33°45' E 136°23'10112.2
2017-Dec-02 16:23N 34°33' E 138°10'512.0
2017-Dec-02 15:59N 34°34' E 138°16'911.3
2017-Dec-02 15:10N 34°34' E 138°27'311.1
2017-Dec-02 14:56N 34°34' E 138°30'511.0
2017-Dec-02 14:30N 34°35' E 138°36'611.1
2017-Dec-02 13:55N 34°35' E 138°44'410.7
2017-Dec-02 13:30N 34°35' E 138°49'510.2
2017-Dec-02 13:00N 34°36' E 138°56'611.0
2017-Dec-02 12:29N 34°39' E 139°01'812.1
2017-Dec-02 11:50N 34°46' E 139°06'411.9
2017-Dec-02 11:28N 34°49' E 139°10'712.3
2017-Dec-02 10:55N 34°55' E 139°15'511.1
2017-Dec-02 10:30N 34°57' E 139°19'611.3
2017-Dec-02 10:00N 35°01' E 139°24'510.7
2017-Dec-02 09:30N 35°04' E 139°30'611.4
2017-Dec-02 09:00N 35°06' E 139°36'612.3
2017-Dec-02 08:31N 35°09' E 139°43'612.6
2017-Dec-02 08:00N 35°15' E 139°46'612.8
2017-Dec-02 07:31N 35°20' E 139°42'611.6
2017-Dec-02 07:01N 35°26' E 139°45'612.5
2017-Dec-02 06:31N 35°30' E 139°51'612.3
2017-Dec-02 06:00N 35°34' E 139°56'510.7
2017-Dec-02 05:30N 35°40' E 139°58'1 0.0
2017-Dec-01 03:47N 35°40' E 139°57'3 8.5
2017-Dec-01 03:29N 35°38' E 139°58'612.5
2017-Dec-01 03:00N 35°33' E 139°55'612.8
2017-Dec-01 02:30N 35°28' E 139°50'612.2
2017-Dec-01 02:01N 35°23' E 139°46'611.7
2017-Dec-01 01:31N 35°17' E 139°45'611.8
2017-Dec-01 01:01N 35°11' E 139°47'612.4
2017-Dec-01 00:30N 35°06' E 139°43'612.2
2017-Dec-01 00:01N 35°02' E 139°38'713.7
2017-Nov-30 23:29N 34°58' E 139°31'1214.3
2017-Nov-30 22:39N 34°50' E 139°19'213.9
2017-Nov-30 22:28N 34°49' E 139°17'1113.9
2017-Nov-30 21:41N 34°42' E 139°06'213.5
2017-Nov-30 21:30N 34°40' E 139°04'712.8
2017-Nov-30 20:58N 34°36' E 138°58'714.0
2017-Nov-30 20:30N 34°34' E 138°50'913.9
2017-Nov-30 19:52N 34°33' E 138°39'514.2
2017-Nov-30 19:30N 34°33' E 138°33'  
Track history (hours):
 
Tides and Currents Weather Stations Pressure Air Temp Water Temp Dewpoint Dewpoint Depression Visibility Wind Speed Wind Dir Waves Ship Positions

Sakigake

Last reported at 2017-Dec-10 15:43 UTC. Time now 2017-Dec-11 17:26 UTC.
Position N 34°23' E 134°20'.

Length 80 m; draft 4.5 m.

Type: Cargo ship. MMSI: 431008777.

Date/timePositionNaut miles runAvg speedWind from/ knotsBaromVisibWave heightAir tempDewpointWater temp
2017-Dec-10 15:43N 34°23' E 134°20'312.2
2017-Dec-10 15:30N 34°22' E 134°23'612.1
2017-Dec-10 14:59N 34°19' E 134°30'612.4
2017-Dec-10 14:31N 34°17' E 134°36'612.1
2017-Dec-10 14:00N 34°12' E 134°41'612.1
2017-Dec-10 13:30N 34°07' E 134°45'611.6
2017-Dec-10 13:00N 34°03' E 134°49'611.6
2017-Dec-10 12:30N 33°58' E 134°54'611.5
2017-Dec-10 12:00N 33°54' E 134°58'88 9.4
2017-Dec-10 02:39N 34°06' E 136°43'6512.4
2017-Dec-09 21:23N 34°31' E 137°57'611.2
2017-Dec-09 20:49N 34°31' E 138°05'310.4
2017-Dec-09 20:29N 34°31' E 138°09'5 9.7
2017-Dec-09 20:00N 34°31' E 138°15'11 9.8
2017-Dec-09 18:53N 34°32' E 138°28'4 9.5
2017-Dec-09 18:29N 34°33' E 138°33'5 9.6
2017-Dec-09 17:59N 34°34' E 138°38'5 9.2
2017-Dec-09 17:30N 34°34' E 138°44'5 9.4
2017-Dec-09 17:00N 34°34' E 138°49'4 8.9
2017-Dec-09 16:30N 34°35' E 138°55'4 8.9
2017-Dec-09 16:00N 34°38' E 138°59'610.9
2017-Dec-09 15:30N 34°42' E 139°03'511.1
2017-Dec-09 15:00N 34°46' E 139°07'611.2
2017-Dec-09 14:28N 34°51' E 139°12'511.0
2017-Dec-09 13:59N 34°55' E 139°17'5 9.9
2017-Dec-09 13:31N 34°57' E 139°22'5 9.8
2017-Dec-09 13:00N 34°60' E 139°27'5 9.4
2017-Dec-09 12:30N 35°02' E 139°32'510.4
2017-Dec-09 12:00N 35°05' E 139°37'611.8
2017-Dec-09 11:30N 35°08' E 139°43'611.8
2017-Dec-09 11:01N 35°13' E 139°46'611.5
2017-Dec-09 10:31N 35°19' E 139°43'611.0
2017-Dec-09 10:01N 35°24' E 139°43'611.6
2017-Dec-09 09:31N 35°28' E 139°48'711.8
2017-Dec-09 08:53N 35°33' E 139°55'611.5
2017-Dec-09 08:22N 35°38' E 139°58'2 0.4
2017-Dec-09 02:15N 35°40' E 139°57'0 0.0
2017-Dec-08 22:13N 35°40' E 139°57'0 0.0
2017-Dec-08 16:48N 35°40' E 139°57'0 0.0
2017-Dec-08 15:06N 35°40' E 139°57'0 0.0
2017-Dec-08 12:38N 35°40' E 139°57'0 0.0
2017-Dec-08 12:21N 35°40' E 139°57'0 0.0
2017-Dec-08 06:27N 35°40' E 139°57'0 0.0
2017-Dec-08 05:59N 35°40' E 139°57'0 0.2
2017-Dec-08 04:42N 35°40' E 139°57'3 7.6
2017-Dec-08 04:18N 35°38' E 139°59'2 6.5
2017-Dec-08 04:00N 35°36' E 139°57'0 0.1
2017-Dec-08 03:27N 35°36' E 139°57'0 0.0
2017-Dec-08 03:00N 35°36' E 139°57'0 0.0
2017-Dec-08 02:30N 35°36' E 139°57'0 0.0
2017-Dec-08 02:00N 35°36' E 139°57'0 0.0
2017-Dec-08 01:27N 35°36' E 139°57'0 0.0
2017-Dec-08 01:00N 35°36' E 139°57'0 0.0
2017-Dec-08 00:24N 35°36' E 139°57'0 0.0
2017-Dec-08 00:00N 35°36' E 139°57'0 0.0
2017-Dec-07 23:29N 35°36' E 139°57'0 0.0
2017-Dec-07 23:00N 35°36' E 139°57'0 0.0
2017-Dec-07 22:30N 35°36' E 139°57'0 0.0
2017-Dec-07 21:58N 35°36' E 139°57'0 0.0
2017-Dec-07 20:57N 35°36' E 139°57'0 0.0
2017-Dec-07 19:09N 35°36' E 139°57'0 0.0
2017-Dec-07 18:45N 35°36' E 139°57'0 0.0
2017-Dec-07 18:30N 35°36' E 139°57'0 0.0
2017-Dec-07 18:00N 35°36' E 139°57'0 0.0
2017-Dec-07 17:30N 35°36' E 139°57'2 4.5
2017-Dec-07 16:59N 35°34' E 139°56'611.8
2017-Dec-07 16:30N 35°30' E 139°52'611.6
2017-Dec-07 16:00N 35°25' E 139°47'611.2
2017-Dec-07 15:31N 35°20' E 139°45'510.3
2017-Dec-07 15:01N 35°15' E 139°47'611.0
2017-Dec-07 14:30N 35°10' E 139°46'611.7
2017-Dec-07 14:00N 35°05' E 139°42'612.8
2017-Dec-07 13:30N 35°01' E 139°36'1913.5
2017-Dec-07 12:04N 34°49' E 139°17'213.2
2017-Dec-07 11:54N 34°48' E 139°15'912.9
2017-Dec-07 11:11N 34°42' E 139°06'311.6
2017-Dec-07 10:58N 34°40' E 139°04'510.7
2017-Dec-07 10:31N 34°37' E 138°59'1411.9
2017-Dec-07 09:18N 34°34' E 138°43'512.8
2017-Dec-07 08:54N 34°34' E 138°36'512.2
2017-Dec-07 08:29N 34°33' E 138°30'811.9
2017-Dec-07 07:51N 34°32' E 138°21'511.7
2017-Dec-07 07:25N 34°32' E 138°15'611.8
2017-Dec-07 06:56N 34°31' E 138°08'  
2017-Dec-03 12:03N 34°25' E 134°12'113.2
2017-Dec-03 11:59N 34°24' E 134°13'613.2
2017-Dec-03 11:30N 34°22' E 134°20'612.5
2017-Dec-03 11:00N 34°20' E 134°27'612.6
2017-Dec-03 10:30N 34°17' E 134°34'612.1
2017-Dec-03 10:00N 34°13' E 134°40'713.1
2017-Dec-03 09:30N 34°08' E 134°45'612.1
2017-Dec-03 09:00N 34°04' E 134°50'612.0
2017-Dec-03 08:30N 33°59' E 134°55'712.6
2017-Dec-03 07:59N 33°54' E 134°60'70 9.5
2017-Dec-03 00:39N 33°45' E 136°23'10112.2
2017-Dec-02 16:23N 34°33' E 138°10'512.0
2017-Dec-02 15:59N 34°34' E 138°16'911.3
2017-Dec-02 15:10N 34°34' E 138°27'311.1
2017-Dec-02 14:56N 34°34' E 138°30'511.0
2017-Dec-02 14:30N 34°35' E 138°36'611.1
2017-Dec-02 13:55N 34°35' E 138°44'410.7
2017-Dec-02 13:30N 34°35' E 138°49'510.2
2017-Dec-02 13:00N 34°36' E 138°56'611.0
2017-Dec-02 12:29N 34°39' E 139°01'812.1
2017-Dec-02 11:50N 34°46' E 139°06'411.9
2017-Dec-02 11:28N 34°49' E 139°10'712.3
2017-Dec-02 10:55N 34°55' E 139°15'511.1
2017-Dec-02 10:30N 34°57' E 139°19'611.3
2017-Dec-02 10:00N 35°01' E 139°24'510.7
2017-Dec-02 09:30N 35°04' E 139°30'611.4
2017-Dec-02 09:00N 35°06' E 139°36'612.3
2017-Dec-02 08:31N 35°09' E 139°43'612.6
2017-Dec-02 08:00N 35°15' E 139°46'612.8
2017-Dec-02 07:31N 35°20' E 139°42'611.6
2017-Dec-02 07:01N 35°26' E 139°45'612.5
2017-Dec-02 06:31N 35°30' E 139°51'612.3
2017-Dec-02 06:00N 35°34' E 139°56'510.7
2017-Dec-02 05:30N 35°40' E 139°58'1 0.0
2017-Dec-01 03:47N 35°40' E 139°57'3 8.5
2017-Dec-01 03:29N 35°38' E 139°58'612.5
2017-Dec-01 03:00N 35°33' E 139°55'612.8
2017-Dec-01 02:30N 35°28' E 139°50'612.2
2017-Dec-01 02:01N 35°23' E 139°46'611.7
2017-Dec-01 01:31N 35°17' E 139°45'611.8
2017-Dec-01 01:01N 35°11' E 139°47'612.4
2017-Dec-01 00:30N 35°06' E 139°43'612.2
2017-Dec-01 00:01N 35°02' E 139°38'713.7
2017-Nov-30 23:29N 34°58' E 139°31'1214.3
2017-Nov-30 22:39N 34°50' E 139°19'213.9
2017-Nov-30 22:28N 34°49' E 139°17'1113.9
2017-Nov-30 21:41N 34°42' E 139°06'213.5
2017-Nov-30 21:30N 34°40' E 139°04'712.8
2017-Nov-30 20:58N 34°36' E 138°58'714.0
2017-Nov-30 20:30N 34°34' E 138°50'913.9
2017-Nov-30 19:52N 34°33' E 138°39'514.2
2017-Nov-30 19:30N 34°33' E 138°33'  

Dump ship's entire track history